Time;durP1;ratioP1;P1;durP2;ratioP2;P2;SDS_P1;SDS_P2;PMS_P1;PMS_P2;Temp;Humidity;BMP_temperature;BMP_pressure;BME280_temperature;BME280_humidity;BME280_pressure;Samples;Min_cycle;Max_cycle;Signal;HPM_P1;HPM_P2
2022/07/11 00:00:08;;;;;;;2.85;1.95;;;16.90;99.90;;;;;;5011826;28;20038;-77
2022/07/11 00:02:35;;;;;;;3.15;2.00;;;16.90;99.90;;;;;;5010183;28;20057;-75
2022/07/11 00:05:04;;;;;;;2.10;1.85;;;16.90;99.90;;;;;;5011479;28;20030;-75
2022/07/11 00:07:30;;;;;;;2.83;1.85;;;16.90;99.90;;;;;;5011116;28;20033;-75
2022/07/11 00:09:56;;;;;;;4.72;2.22;;;16.90;99.90;;;;;;4993835;28;20475;-75
2022/07/11 00:12:26;;;;;;;2.85;2.28;;;16.80;99.90;;;;;;4992547;28;20467;-75
2022/07/11 00:14:53;;;;;;;4.18;2.50;;;16.80;99.90;;;;;;5010918;28;20049;-75
2022/07/11 00:17:20;;;;;;;2.30;1.80;;;16.70;99.90;;;;;;5011223;28;20054;-75
2022/07/11 00:19:46;;;;;;;4.82;2.25;;;16.70;99.90;;;;;;5011170;28;20036;-75
2022/07/11 00:22:12;;;;;;;3.60;2.50;;;16.50;99.90;;;;;;5010444;28;20034;-75
2022/07/11 00:24:38;;;;;;;2.33;2.13;;;16.50;99.90;;;;;;5011496;28;20033;-74
2022/07/11 00:27:04;;;;;;;4.55;2.67;;;16.50;99.90;;;;;;5011061;28;20036;-75
2022/07/11 00:29:32;;;;;;;3.90;2.58;;;16.40;99.90;;;;;;4992923;28;20057;-76
2022/07/11 00:31:59;;;;;;;3.70;2.30;;;16.40;99.90;;;;;;5003272;28;20042;-75
2022/07/11 00:34:25;;;;;;;2.53;2.00;;;16.30;99.90;;;;;;5010838;28;20500;-75
2022/07/11 00:36:52;;;;;;;2.92;2.15;;;16.30;99.90;;;;;;5011303;28;20477;-75
2022/07/11 00:39:18;;;;;;;3.55;2.47;;;16.20;99.90;;;;;;5011063;28;20029;-75
2022/07/11 00:41:44;;;;;;;4.38;2.70;;;16.20;99.90;;;;;;5009246;28;20050;-75
2022/07/11 00:44:12;;;;;;;2.25;2.00;;;16.20;99.90;;;;;;5010380;28;20053;-81
2022/07/11 00:46:38;;;;;;;3.17;2.58;;;16.00;99.90;;;;;;4992075;28;20068;-75
2022/07/11 00:49:04;;;;;;;3.03;2.65;;;15.80;99.90;;;;;;4993695;28;20395;-75
2022/07/11 00:51:31;;;;;;;3.97;2.53;;;15.80;99.90;;;;;;5010201;28;20910;-75
2022/07/11 00:53:58;;;;;;;3.17;2.65;;;15.80;99.90;;;;;;5011803;28;20038;-75
2022/07/11 00:56:27;;;;;;;2.78;2.33;;;15.70;99.90;;;;;;5010931;28;20041;-75
2022/07/11 00:58:56;;;;;;;4.68;2.53;;;15.60;99.90;;;;;;5011629;28;20034;-75
2022/07/11 01:01:23;;;;;;;4.05;2.80;;;15.40;99.90;;;;;;5012575;28;20088;-75
2022/07/11 01:03:50;;;;;;;3.78;3.22;;;15.40;99.90;;;;;;5015640;28;20041;-76
2022/07/11 01:06:16;;;;;;;3.58;2.67;;;15.30;99.90;;;;;;5015366;28;20039;-76
2022/07/11 01:08:43;;;;;;;3.33;2.67;;;15.20;99.90;;;;;;5013958;28;20042;-80
2022/07/11 01:11:18;;;;;;;3.17;2.20;;;15.10;99.90;;;;;;4999005;28;20050;-81
2022/07/11 01:13:45;;;;;;;4.40;3.00;;;15.10;99.90;;;;;;5018808;28;20034;-75
2022/07/11 01:16:21;;;;;;;4.05;2.83;;;15.00;99.90;;;;;;5014663;28;20022;-78
2022/07/11 01:18:53;;;;;;;3.35;3.03;;;14.90;99.90;;;;;;5015094;28;20418;-75
2022/07/11 01:21:35;;;;;;;3.33;3.03;;;14.90;99.90;;;;;;5012796;28;20041;-75
2022/07/11 01:24:02;;;;;;;5.72;3.42;;;14.90;99.90;;;;;;5014844;28;20029;-76
2022/07/11 01:26:29;;;;;;;3.80;3.38;;;14.90;99.90;;;;;;5014005;28;20045;-77
2022/07/11 01:29:04;;;;;;;3.33;2.60;;;15.00;99.90;;;;;;5014425;28;20053;-76
2022/07/11 01:31:30;;;;;;;5.63;3.30;;;14.90;99.90;;;;;;4991387;28;20609;-76
2022/07/11 01:33:58;;;;;;;4.03;3.13;;;15.00;99.90;;;;;;5014397;28;20033;-77
2022/07/11 01:36:24;;;;;;;5.22;4.05;;;14.90;99.90;;;;;;5013853;28;20037;-76
2022/07/11 01:38:50;;;;;;;5.18;2.88;;;14.70;99.90;;;;;;5014320;28;20037;-76
2022/07/11 01:41:16;;;;;;;5.38;3.53;;;14.60;99.90;;;;;;5012309;28;20034;-77
2022/07/11 01:43:42;;;;;;;4.13;2.80;;;14.60;99.90;;;;;;5013032;28;20053;-77
2022/07/11 01:46:08;;;;;;;4.22;2.88;;;14.60;99.90;;;;;;5014017;28;20383;-81
2022/07/11 01:48:35;;;;;;;3.78;2.85;;;14.80;99.90;;;;;;5013857;28;20049;-76
2022/07/11 01:51:01;;;;;;;3.58;2.30;;;14.80;99.90;;;;;;5013381;28;20034;-77
2022/07/11 01:53:27;;;;;;;4.13;2.88;;;14.80;99.90;;;;;;5012753;28;20467;-76
2022/07/11 01:55:53;;;;;;;3.25;2.83;;;14.90;99.90;;;;;;5013966;28;20034;-77
2022/07/11 01:58:19;;;;;;;3.33;2.85;;;15.00;99.90;;;;;;5013500;28;20041;-77
2022/07/11 02:00:46;;;;;;;4.50;3.00;;;15.20;99.90;;;;;;4993785;28;20112;-77
2022/07/11 02:03:12;;;;;;;3.58;3.05;;;15.20;99.90;;;;;;5008840;28;20058;-77
2022/07/11 02:05:39;;;;;;;3.88;2.95;;;15.20;99.90;;;;;;5013166;28;20032;-77
2022/07/11 02:08:13;;;;;;;3.47;2.45;;;15.30;99.90;;;;;;5013870;28;20048;-77
2022/07/11 02:10:49;;;;;;;2.63;2.38;;;15.20;99.90;;;;;;5013032;28;20033;-76
2022/07/11 02:13:17;;;;;;;2.75;2.30;;;15.20;99.90;;;;;;5012129;28;20049;-77
2022/07/11 02:15:46;;;;;;;4.28;3.20;;;15.30;99.90;;;;;;5013533;28;20486;-74
2022/07/11 02:18:13;;;;;;;7.38;2.97;;;15.40;99.90;;;;;;5013168;28;20077;-80
2022/07/11 02:20:41;;;;;;;3.92;2.33;;;15.40;99.90;;;;;;5013152;28;20034;-74
2022/07/11 02:23:08;;;;;;;3.83;2.38;;;15.30;99.90;;;;;;5012396;28;20045;-76
2022/07/11 02:25:38;;;;;;;4.93;2.70;;;15.20;99.90;;;;;;5015372;28;20029;-77
2022/07/11 02:28:08;;;;;;;3.75;3.10;;;15.20;99.90;;;;;;5011879;28;20204;-76
2022/07/11 02:30:38;;;;;;;3.75;2.78;;;15.20;99.90;;;;;;5012770;28;20034;-76
2022/07/11 02:33:07;;;;;;;8.57;3.17;;;15.20;99.90;;;;;;5011798;28;20037;-76
2022/07/11 02:35:33;;;;;;;5.80;3.35;;;15.30;99.90;;;;;;5012130;28;20041;-77
2022/07/11 02:38:00;;;;;;;5.15;3.10;;;15.30;99.90;;;;;;5013077;28;20049;-77
2022/07/11 02:40:27;;;;;;;4.10;3.03;;;15.40;99.90;;;;;;5012722;28;20926;-76
2022/07/11 02:42:53;;;;;;;2.85;2.58;;;15.50;99.90;;;;;;5011717;28;20420;-77
2022/07/11 02:45:19;;;;;;;4.47;3.25;;;15.50;99.90;;;;;;5009689;28;20029;-76
2022/07/11 02:47:46;;;;;;;3.95;2.88;;;15.40;99.90;;;;;;5013092;28;20029;-80
2022/07/11 02:50:13;;;;;;;5.13;3.58;;;15.40;99.90;;;;;;5012929;28;20343;-82
2022/07/11 02:52:41;;;;;;;3.13;2.60;;;15.40;99.90;;;;;;5011494;28;20030;-76
2022/07/11 02:55:09;;;;;;;7.53;3.55;;;15.30;99.90;;;;;;5012524;28;20038;-77
2022/07/11 02:57:36;;;;;;;3.95;3.53;;;15.40;99.90;;;;;;5012602;28;20046;-77
2022/07/11 03:00:09;;;;;;;4.50;2.70;;;15.40;99.90;;;;;;5012593;28;20042;-76
2022/07/11 03:02:35;;;;;;;3.60;2.75;;;15.40;99.90;;;;;;5010875;28;20058;-76
2022/07/11 03:05:01;;;;;;;3.97;2.78;;;15.40;99.90;;;;;;5012393;28;20800;-77
2022/07/11 03:07:28;;;;;;;3.88;3.50;;;15.50;99.90;;;;;;5011688;28;20032;-76
2022/07/11 03:09:55;;;;;;;3.55;2.58;;;15.60;99.90;;;;;;5012726;28;20037;-77
2022/07/11 03:12:22;;;;;;;4.70;2.78;;;15.60;99.90;;;;;;5010364;28;20040;-78
2022/07/11 03:14:48;;;;;;;3.20;2.40;;;15.60;99.90;;;;;;5005537;28;20041;-77
2022/07/11 03:17:17;;;;;;;4.07;2.58;;;15.60;99.90;;;;;;5011846;28;20398;-77
2022/07/11 03:19:43;;;;;;;3.40;2.40;;;15.60;99.90;;;;;;5012332;28;20482;-76
2022/07/11 03:22:10;;;;;;;4.10;3.20;;;15.50;99.90;;;;;;5010257;28;20029;-79
2022/07/11 03:24:36;;;;;;;4.53;2.95;;;15.50;99.90;;;;;;5012420;28;20557;-76
2022/07/11 03:27:03;;;;;;;4.15;2.90;;;15.50;99.90;;;;;;5012593;28;20037;-76
2022/07/11 03:29:29;;;;;;;5.80;3.30;;;15.60;99.90;;;;;;5011190;28;20030;-77
2022/07/11 03:31:55;;;;;;;3.80;3.40;;;15.60;99.90;;;;;;4993124;28;20030;-76
2022/07/11 03:34:22;;;;;;;4.57;2.88;;;15.70;99.90;;;;;;5011757;28;20037;-77
2022/07/11 03:36:48;;;;;;;5.57;3.40;;;15.70;99.90;;;;;;5011260;28;20049;-76
2022/07/11 03:39:14;;;;;;;3.38;2.72;;;15.70;99.90;;;;;;5012113;28;20045;-77
2022/07/11 03:41:41;;;;;;;3.80;2.80;;;15.80;99.90;;;;;;5011243;28;20481;-76
2022/07/11 03:44:07;;;;;;;3.67;3.22;;;15.80;99.90;;;;;;5012318;28;20033;-76
2022/07/11 03:46:34;;;;;;;3.35;3.03;;;15.80;99.90;;;;;;5012249;28;20044;-76
2022/07/11 03:49:00;;;;;;;3.63;2.90;;;15.70;99.90;;;;;;5003394;28;20042;-76
2022/07/11 03:51:26;;;;;;;5.95;3.42;;;15.70;99.90;;;;;;5011707;28;20041;-76
2022/07/11 03:53:53;;;;;;;3.63;2.92;;;15.70;99.90;;;;;;5012490;28;20041;-76
2022/07/11 03:56:22;;;;;;;3.30;2.85;;;15.70;99.90;;;;;;5012114;28;20030;-76
2022/07/11 03:58:51;;;;;;;3.80;2.80;;;15.60;99.90;;;;;;5003120;28;20041;-77
2022/07/11 04:01:19;;;;;;;4.80;3.20;;;15.80;99.90;;;;;;5010893;28;20391;-76
2022/07/11 04:03:46;;;;;;;6.47;3.03;;;15.80;99.90;;;;;;5011647;28;20041;-76
2022/07/11 04:06:14;;;;;;;3.53;2.83;;;15.80;99.90;;;;;;4993688;28;20045;-83
2022/07/11 04:08:40;;;;;;;5.00;2.72;;;15.80;99.90;;;;;;5016667;28;20042;-76
2022/07/11 04:11:07;;;;;;;5.22;2.55;;;15.80;99.90;;;;;;5011651;28;20048;-77
2022/07/11 04:13:33;;;;;;;3.42;3.13;;;15.80;99.90;;;;;;5012305;28;20485;-77
2022/07/11 04:15:59;;;;;;;4.10;3.13;;;15.80;99.90;;;;;;4988982;28;20037;-76
2022/07/11 04:18:25;;;;;;;3.42;2.70;;;15.80;99.90;;;;;;5005713;28;20471;-77
2022/07/11 04:20:52;;;;;;;4.88;2.53;;;15.80;99.90;;;;;;5017457;28;20041;-79
2022/07/11 04:23:18;;;;;;;5.25;3.03;;;15.80;99.90;;;;;;5011443;28;20026;-76
2022/07/11 04:25:44;;;;;;;6.85;3.10;;;15.90;99.90;;;;;;5013326;28;20034;-75
2022/07/11 04:28:10;;;;;;;4.35;3.33;;;16.00;99.90;;;;;;5011667;28;20041;-77
2022/07/11 04:30:36;;;;;;;6.32;2.78;;;16.00;99.90;;;;;;4998201;28;20045;-77
2022/07/11 04:33:02;;;;;;;3.20;2.53;;;16.10;99.90;;;;;;5008799;28;20056;-76
2022/07/11 04:35:30;;;;;;;4.53;3.42;;;16.20;99.90;;;;;;5017464;28;20029;-76
2022/07/11 04:37:57;;;;;;;4.85;2.35;;;16.30;99.90;;;;;;5018192;28;20042;-76
2022/07/11 04:40:23;;;;;;;3.47;2.95;;;16.40;99.90;;;;;;5017164;28;20517;-77
2022/07/11 04:42:50;;;;;;;3.72;2.70;;;16.40;99.90;;;;;;5019504;28;20037;-77
2022/07/11 04:45:17;;;;;;;4.93;3.15;;;16.40;99.90;;;;;;5017399;28;20468;-77
2022/07/11 04:47:43;;;;;;;4.35;2.70;;;16.40;99.90;;;;;;5018189;28;20414;-77
2022/07/11 04:50:09;;;;;;;3.42;2.70;;;16.50;99.90;;;;;;5017840;28;20030;-76
2022/07/11 04:52:35;;;;;;;7.07;2.75;;;16.50;99.90;;;;;;5015904;28;20478;-76
2022/07/11 04:55:02;;;;;;;4.28;3.28;;;16.50;99.90;;;;;;5017809;28;20406;-76
2022/07/11 04:57:28;;;;;;;5.30;3.17;;;16.60;99.90;;;;;;5017242;28;20042;-76
2022/07/11 04:59:54;;;;;;;3.60;2.33;;;16.60;99.90;;;;;;5017252;28;20029;-77
2022/07/11 05:02:20;;;;;;;3.10;2.70;;;16.70;99.90;;;;;;5015830;28;20053;-77
2022/07/11 05:04:47;;;;;;;3.80;2.55;;;16.80;99.90;;;;;;5017652;28;20030;-77
2022/07/11 05:07:13;;;;;;;3.53;2.83;;;16.90;99.90;;;;;;5017805;28;20030;-82
2022/07/11 05:09:39;;;;;;;3.38;2.88;;;17.00;99.90;;;;;;5017105;28;20029;-76
2022/07/11 05:12:06;;;;;;;3.92;2.65;;;17.00;99.90;;;;;;5016751;28;20038;-76
2022/07/11 05:14:32;;;;;;;5.63;2.60;;;17.10;99.90;;;;;;5017813;28;20042;-76
2022/07/11 05:16:59;;;;;;;4.15;3.00;;;17.20;99.90;;;;;;5017892;28;20030;-76
2022/07/11 05:19:25;;;;;;;3.33;2.70;;;17.30;99.90;;;;;;5017741;28;20053;-76
2022/07/11 05:21:51;;;;;;;4.53;2.88;;;17.30;99.90;;;;;;5017547;28;20045;-78
2022/07/11 05:24:18;;;;;;;3.40;2.90;;;17.30;99.90;;;;;;5017924;28;20053;-76
2022/07/11 05:26:44;;;;;;;6.30;3.25;;;17.30;99.90;;;;;;5018112;28;20030;-75
2022/07/11 05:29:11;;;;;;;6.45;3.30;;;17.40;99.90;;;;;;5018156;28;20038;-75
2022/07/11 05:31:37;;;;;;;3.95;2.58;;;17.60;99.90;;;;;;4997356;28;20037;-75
2022/07/11 05:34:03;;;;;;;3.78;2.42;;;17.70;99.90;;;;;;5017973;28;20061;-75
2022/07/11 05:36:29;;;;;;;8.57;2.95;;;17.80;99.90;;;;;;5017456;28;20489;-75
2022/07/11 05:38:55;;;;;;;6.72;3.28;;;17.90;99.90;;;;;;5017904;28;20475;-75
2022/07/11 05:41:21;;;;;;;3.30;2.75;;;18.00;99.90;;;;;;5015812;28;20030;-76
2022/07/11 05:43:48;;;;;;;4.70;2.88;;;18.00;99.90;;;;;;5018563;28;20045;-75
2022/07/11 05:46:14;;;;;;;5.30;3.17;;;18.00;99.90;;;;;;5014706;28;20406;-77
2022/07/11 05:48:40;;;;;;;5.20;3.28;;;18.10;99.90;;;;;;5014190;28;20038;-75
2022/07/11 05:51:06;;;;;;;3.10;2.30;;;18.00;99.90;;;;;;5013102;28;20034;-74
2022/07/11 05:53:32;;;;;;;5.60;3.95;;;18.10;99.90;;;;;;4996433;28;20057;-77
2022/07/11 05:55:58;;;;;;;4.25;2.60;;;18.20;99.90;;;;;;5014419;28;20025;-77
2022/07/11 05:58:25;;;;;;;3.95;2.60;;;18.20;99.90;;;;;;5013177;28;20034;-75
2022/07/11 06:00:51;;;;;;;4.18;2.80;;;18.30;99.90;;;;;;5012933;28;20045;-74
2022/07/11 06:03:17;;;;;;;5.13;2.67;;;18.40;99.90;;;;;;5013321;28;20053;-77
2022/07/11 06:05:43;;;;;;;6.15;2.78;;;18.60;99.90;;;;;;5018736;28;20034;-75
2022/07/11 06:10:54;;;;;;;5.10;2.53;;;18.80;99.90;;;;;;5011880;28;20030;-77
2022/07/11 06:13:21;;;;;;;8.30;3.53;;;18.70;99.90;;;;;;5013341;28;20033;-76
2022/07/11 06:15:47;;;;;;;6.47;2.08;;;18.80;99.90;;;;;;5009596;28;20026;-76
2022/07/11 06:18:13;;;;;;;3.92;2.28;;;19.20;99.90;;;;;;5012896;28;20509;-76
2022/07/11 06:20:39;;;;;;;6.80;2.00;;;19.10;99.90;;;;;;5012221;28;20042;-79
2022/07/11 06:23:06;;;;;;;5.00;2.50;;;19.30;99.90;;;;;;5013742;28;20048;-76
2022/07/11 06:25:32;;;;;;;3.65;2.30;;;19.40;99.90;;;;;;5013115;28;20041;-76
2022/07/11 06:28:00;;;;;;;4.15;2.40;;;19.90;99.30;;;;;;5013634;28;20030;-76
2022/07/11 06:30:27;;;;;;;2.80;2.13;;;20.40;97.40;;;;;;5012717;28;20030;-74
2022/07/11 06:32:53;;;;;;;6.63;3.03;;;20.20;97.40;;;;;;4994736;28;20052;-74
2022/07/11 06:35:19;;;;;;;5.72;2.50;;;20.80;96.90;;;;;;5012329;28;20045;-74
2022/07/11 06:37:45;;;;;;;5.97;3.00;;;21.70;95.90;;;;;;5014230;28;20043;-74
2022/07/11 06:40:12;;;;;;;6.65;2.47;;;22.10;93.50;;;;;;5012356;28;20049;-74
2022/07/11 06:42:38;;;;;;;9.23;3.40;;;22.60;90.60;;;;;;5010950;28;20041;-74
2022/07/11 06:45:07;;;;;;;5.15;2.67;;;22.50;90.70;;;;;;4993269;28;20042;-74
2022/07/11 06:47:33;;;;;;;5.47;2.17;;;24.10;83.30;;;;;;5013174;28;20041;-75
2022/07/11 06:50:00;;;;;;;6.68;2.15;;;25.40;77.00;;;;;;5013067;28;20375;-74
2022/07/11 06:52:26;;;;;;;6.20;3.03;;;24.90;74.60;;;;;;5011027;28;20479;-75
2022/07/11 06:54:52;;;;;;;3.20;2.05;;;25.20;76.10;;;;;;5012618;28;20034;-76
2022/07/11 06:57:18;;;;;;;5.00;2.22;;;25.40;73.00;;;;;;5011968;28;20030;-75
2022/07/11 06:59:44;;;;;;;4.68;2.28;;;24.50;75.10;;;;;;5012708;28;20050;-73
2022/07/11 07:02:11;;;;;;;4.60;2.38;;;24.10;78.30;;;;;;5011735;28;20060;-73
2022/07/11 07:04:37;;;;;;;5.25;2.03;;;25.70;75.60;;;;;;5012897;28;20029;-73
2022/07/11 07:07:03;;;;;;;8.98;2.58;;;27.40;70.70;;;;;;5011974;28;20038;-75
2022/07/11 07:09:30;;;;;;;4.43;1.90;;;27.60;63.70;;;;;;5005543;28;20054;-73
2022/07/11 07:11:56;;;;;;;5.78;2.38;;;25.50;68.70;;;;;;5011820;28;20402;-72
2022/07/11 07:14:22;;;;;;;3.92;2.40;;;26.20;67.50;;;;;;5012447;28;20030;-74
2022/07/11 07:16:48;;;;;;;6.75;2.60;;;26.50;65.20;;;;;;5013091;28;20033;-74
2022/07/11 07:19:14;;;;;;;2.83;1.35;;;27.30;63.70;;;;;;5012571;28;20042;-73
2022/07/11 07:21:41;;;;;;;3.38;1.60;;;26.60;62.50;;;;;;5009845;28;20033;-74
2022/07/11 07:24:07;;;;;;;7.90;1.92;;;25.60;64.90;;;;;;5013118;28;20451;-74
2022/07/11 07:26:33;;;;;;;4.00;1.80;;;24.00;69.30;;;;;;5012036;28;20026;-74
2022/07/11 07:28:59;;;;;;;5.95;2.47;;;22.90;72.80;;;;;;5012677;28;20034;-73
2022/07/11 07:31:25;;;;;;;3.50;1.45;;;22.00;78.10;;;;;;4993300;28;20037;-74
2022/07/11 07:33:53;;;;;;;2.03;1.50;;;21.60;81.10;;;;;;5012569;28;20399;-74
2022/07/11 07:36:19;;;;;;;5.57;1.85;;;21.20;85.30;;;;;;5013166;28;20034;-81
2022/07/11 07:38:48;;;;;;;5.15;1.45;;;21.30;88.60;;;;;;5011894;28;20167;-75
2022/07/11 07:41:15;;;;;;;3.38;1.20;;;21.50;86.50;;;;;;5011755;28;20429;-75
2022/07/11 07:43:42;;;;;;;4.88;1.63;;;21.20;87.20;;;;;;5011634;28;20463;-74
2022/07/11 07:46:10;;;;;;;2.72;1.15;;;21.30;89.20;;;;;;5012912;28;20489;-75
2022/07/11 07:48:40;;;;;;;6.55;1.42;;;21.50;86.60;;;;;;5001869;28;20474;-75
2022/07/11 07:51:07;;;;;;;3.40;1.52;;;22.00;86.30;;;;;;5010976;28;20026;-77
2022/07/11 07:53:33;;;;;;;3.13;1.17;;;22.80;79.70;;;;;;5012742;28;20061;-75
2022/07/11 07:55:59;;;;;;;4.32;1.13;;;22.80;81.70;;;;;;5002680;28;20048;-75
2022/07/11 07:58:25;;;;;;;3.15;1.60;;;23.30;78.00;;;;;;5020565;28;20038;-75
2022/07/11 08:03:36;;;;;;;3.33;1.85;;;23.00;77.60;;;;;;5002006;28;20050;-75
2022/07/11 08:06:02;;;;;;;2.92;1.30;;;23.90;74.40;;;;;;4995768;28;20398;-75
2022/07/11 08:08:29;;;;;;;1.95;0.77;;;23.80;75.10;;;;;;4989584;28;20034;-75
2022/07/11 08:10:55;;;;;;;4.05;1.20;;;25.70;69.80;;;;;;4985873;28;20518;-75
2022/07/11 08:13:22;;;;;;;2.47;0.98;;;25.70;64.90;;;;;;4988328;28;20030;-75
2022/07/11 08:15:48;;;;;;;3.17;1.25;;;25.10;67.50;;;;;;4990575;28;20046;-75
2022/07/11 08:18:14;;;;;;;4.45;1.38;;;23.80;70.00;;;;;;4987459;28;20502;-78
2022/07/11 08:20:40;;;;;;;2.42;1.13;;;22.60;74.20;;;;;;4990530;28;20042;-75
2022/07/11 08:23:06;;;;;;;9.70;1.50;;;22.20;78.20;;;;;;4992356;28;20026;-76
2022/07/11 08:25:33;;;;;;;3.55;1.08;;;21.80;80.30;;;;;;4968354;28;20061;-75
2022/07/11 08:27:59;;;;;;;2.05;1.08;;;22.10;81.20;;;;;;4980711;28;20046;-74
2022/07/11 08:30:25;;;;;;;4.85;1.40;;;22.60;80.30;;;;;;4984798;28;20039;-76
2022/07/11 08:32:52;;;;;;;3.97;1.10;;;23.00;78.40;;;;;;4987103;28;20038;-75
2022/07/11 08:35:18;;;;;;;4.43;1.13;;;23.00;77.60;;;;;;4984949;28;20034;-82
2022/07/11 08:37:45;;;;;;;2.08;1.20;;;22.70;78.80;;;;;;4991201;28;20042;-75
2022/07/11 08:40:11;;;;;;;11.00;1.77;;;22.90;77.50;;;;;;4987235;28;20042;-74
2022/07/11 08:42:42;;;;;;;3.30;1.10;;;22.60;78.70;;;;;;4981856;28;20037;-75
2022/07/11 08:45:13;;;;;;;4.82;1.15;;;22.40;79.30;;;;;;4992153;28;20022;-75
2022/07/11 08:47:40;;;;;;;1.92;1.40;;;22.20;81.90;;;;;;4983136;28;20460;-74
2022/07/11 08:50:07;;;;;;;4.55;1.08;;;21.90;83.60;;;;;;4979036;28;20419;-75
2022/07/11 08:52:33;;;;;;;4.63;1.08;;;22.40;83.10;;;;;;4988106;28;20042;-75
2022/07/11 08:55:00;;;;;;;3.78;1.35;;;22.70;80.70;;;;;;4985590;28;20058;-74
2022/07/11 08:57:26;;;;;;;3.30;1.50;;;22.50;81.70;;;;;;4988917;28;20030;-75
2022/07/11 08:59:55;;;;;;;3.53;1.50;;;22.30;81.90;;;;;;4987125;28;20038;-75
2022/07/11 09:02:22;;;;;;;3.42;1.45;;;22.30;82.90;;;;;;4999981;28;20042;-78
2022/07/11 09:04:49;;;;;;;2.10;0.80;;;22.60;81.00;;;;;;5011330;28;20034;-75
2022/07/11 09:07:15;;;;;;;2.92;0.90;;;22.90;78.60;;;;;;4993235;28;20054;-75
2022/07/11 09:09:41;;;;;;;3.97;1.40;;;23.20;76.90;;;;;;5010821;28;20045;-74
2022/07/11 09:12:14;;;;;;;2.78;1.30;;;23.10;76.80;;;;;;4992741;28;20038;-74
2022/07/11 09:14:46;;;;;;;2.17;1.02;;;22.60;78.70;;;;;;5010257;28;20034;-75
2022/07/11 09:17:13;;;;;;;3.28;0.90;;;22.60;81.30;;;;;;5011850;28;20045;-75
2022/07/11 09:19:39;;;;;;;4.50;1.08;;;22.40;81.00;;;;;;4993260;28;20049;-75
2022/07/11 09:27:43;;;;;;;1.50;1.00;;;21.40;84.50;;;;;;5014755;28;20041;-75
2022/07/11 09:30:39;;;;;;;4.35;1.08;;;21.30;84.80;;;;;;5012907;28;20053;-74
2022/07/11 09:33:09;;;;;;;1.63;0.68;;;21.20;85.30;;;;;;5012564;28;20050;-74
2022/07/11 09:35:40;;;;;;;0.88;0.57;;;21.20;85.80;;;;;;5014750;28;20030;-75
2022/07/11 09:38:09;;;;;;;1.95;0.80;;;21.30;85.40;;;;;;4992548;28;20042;-75
2022/07/11 09:40:36;;;;;;;9.40;0.70;;;21.50;85.10;;;;;;5020543;28;20478;-75
2022/07/11 09:43:04;;;;;;;3.38;1.75;;;21.70;82.80;;;;;;5017869;28;20026;-75
2022/07/11 09:45:32;;;;;;;2.80;1.20;;;22.40;84.20;;;;;;5021234;28;20034;-74
2022/07/11 09:48:06;;;;;;;3.10;0.70;;;22.90;78.60;;;;;;5013325;28;20037;-74
2022/07/11 09:50:32;;;;;;;0.98;0.57;;;22.50;79.40;;;;;;5012459;28;20521;-75
2022/07/11 09:53:14;;;;;;;1.80;0.80;;;22.30;80.50;;;;;;5014647;28;20467;-75
2022/07/11 09:55:44;;;;;;;1.77;0.85;;;22.40;80.70;;;;;;5014676;28;20034;-76
2022/07/11 09:58:13;;;;;;;2.55;0.80;;;22.40;81.90;;;;;;5015154;28;20045;-74
2022/07/11 10:00:41;;;;;;;3.92;1.75;;;22.40;80.00;;;;;;5012882;28;20040;-75
2022/07/11 10:03:10;;;;;;;2.70;1.13;;;22.20;81.50;;;;;;5014765;28;20475;-76
2022/07/11 10:05:36;;;;;;;11.50;2.08;;;22.20;81.00;;;;;;5014229;28;20037;-75
2022/07/11 10:08:04;;;;;;;3.03;0.98;;;21.80;82.80;;;;;;5014569;28;20038;-75
2022/07/11 10:10:33;;;;;;;3.88;1.10;;;21.90;84.10;;;;;;5002700;28;20042;-76
2022/07/11 10:12:59;;;;;;;4.13;1.30;;;22.30;83.10;;;;;;5012346;28;20034;-75
2022/07/11 10:15:35;;;;;;;3.00;1.27;;;22.40;79.90;;;;;;5026849;28;20056;-75
2022/07/11 10:18:26;;;;;;;2.17;1.20;;;22.30;79.60;;;;;;5030129;28;20034;-76
2022/07/11 10:21:06;;;;;;;3.45;1.30;;;22.50;79.80;;;;;;5016541;28;20042;-75
2022/07/11 10:23:41;;;;;;;3.05;0.98;;;23.80;76.00;;;;;;5014287;28;20034;-75
2022/07/11 10:26:35;;;;;;;5.95;1.05;;;24.30;73.30;;;;;;5015048;28;20029;-76
2022/07/11 10:29:05;;;;;;;3.28;0.98;;;24.70;70.00;;;;;;5010523;28;20034;-75
2022/07/11 10:31:31;;;;;;;1.77;1.13;;;24.70;69.70;;;;;;4977768;28;20042;-76
2022/07/11 10:34:10;;;;;;;1.70;1.20;;;24.40;69.90;;;;;;5014043;28;20037;-76
2022/07/11 10:36:41;;;;;;;1.88;1.25;;;23.70;69.30;;;;;;5013773;28;20038;-75
2022/07/11 10:39:29;;;;;;;3.17;1.88;;;23.50;71.20;;;;;;5013454;28;20033;-76
2022/07/11 10:41:57;;;;;;;4.20;3.03;;;23.10;73.40;;;;;;5006718;28;20037;-76
2022/07/11 10:44:24;;;;;;;3.95;2.28;;;23.50;73.50;;;;;;5007582;28;20459;-76
2022/07/11 10:46:52;;;;;;;3.65;1.92;;;23.80;73.60;;;;;;5014166;28;20030;-76
2022/07/11 10:49:35;;;;;;;4.22;1.80;;;23.70;72.90;;;;;;5013851;28;20041;-76
2022/07/11 10:52:08;;;;;;;2.83;2.13;;;23.20;73.70;;;;;;5011833;28;20030;-76
2022/07/11 10:55:03;;;;;;;5.47;2.42;;;23.40;75.20;;;;;;5013401;28;20121;-76
2022/07/11 10:57:49;;;;;;;9.57;3.25;;;23.60;75.80;;;;;;4969151;28;20033;-75
2022/07/11 11:00:20;;;;;;;4.25;2.17;;;23.90;73.40;;;;;;5011668;28;20049;-77
2022/07/11 11:03:09;;;;;;;5.15;3.15;;;23.80;74.60;;;;;;5014270;28;20395;-79
2022/07/11 11:06:04;;;;;;;3.58;2.15;;;23.90;74.80;;;;;;5011858;28;20057;-76
2022/07/11 11:08:42;;;;;;;3.10;2.10;;;24.20;72.10;;;;;;5013812;28;20045;-75
2022/07/11 11:11:23;;;;;;;2.50;1.67;;;23.60;71.50;;;;;;5012657;28;20034;-75
2022/07/11 11:14:27;;;;;;;5.15;2.58;;;23.50;72.40;;;;;;5013696;28;20026;-76
2022/07/11 11:16:54;;;;;;;2.83;2.45;;;23.60;73.70;;;;;;5013936;28;20030;-76
2022/07/11 11:19:48;;;;;;;7.22;3.55;;;23.50;73.40;;;;;;5006243;28;20065;-78
2022/07/11 11:22:17;;;;;;;4.05;2.88;;;23.00;74.30;;;;;;5012134;28;20037;-76
2022/07/11 11:24:45;;;;;;;6.07;3.15;;;23.30;73.90;;;;;;5013479;28;20041;-76
2022/07/11 11:27:19;;;;;;;4.53;2.85;;;23.30;72.60;;;;;;5013386;28;20403;-75
2022/07/11 11:29:46;;;;;;;5.45;3.28;;;22.90;74.30;;;;;;4999826;28;20506;-75
2022/07/11 11:32:13;;;;;;;5.80;3.00;;;23.30;72.70;;;;;;5011811;28;20041;-75
2022/07/11 11:34:42;;;;;;;4.63;3.10;;;23.60;75.00;;;;;;5012718;28;20041;-75
2022/07/11 11:37:09;;;;;;;5.47;3.42;;;23.50;73.40;;;;;;5012121;28;20037;-75
2022/07/11 11:39:38;;;;;;;8.85;3.42;;;23.60;73.10;;;;;;5014011;28;20061;-76
2022/07/11 11:42:16;;;;;;;3.42;2.30;;;23.70;73.80;;;;;;4994453;28;20026;-75
2022/07/11 11:44:55;;;;;;;4.78;2.80;;;23.80;70.50;;;;;;5012687;28;20034;-74
2022/07/11 11:47:23;;;;;;;4.13;2.60;;;23.70;72.40;;;;;;5012632;28;20053;-76
2022/07/11 11:49:50;;;;;;;5.85;2.83;;;24.00;70.20;;;;;;5012721;28;20026;-81
2022/07/11 11:52:17;;;;;;;3.60;2.78;;;24.10;70.20;;;;;;4994990;28;20026;-75
2022/07/11 11:54:49;;;;;;;3.63;2.45;;;24.30;70.80;;;;;;5011877;28;20053;-75
2022/07/11 11:57:16;;;;;;;4.28;2.50;;;24.60;67.80;;;;;;5012071;28;20050;-74
2022/07/11 11:59:43;;;;;;;4.88;2.40;;;24.40;68.60;;;;;;5013256;28;20639;-75
2022/07/11 12:02:10;;;;;;;3.20;2.55;;;24.20;68.00;;;;;;5012266;28;20046;-74
2022/07/11 12:04:36;;;;;;;3.38;2.67;;;24.00;69.10;;;;;;5013161;28;20034;-76
2022/07/11 12:07:03;;;;;;;7.82;2.90;;;24.20;70.20;;;;;;5013164;28;20041;-74
2022/07/11 12:09:50;;;;;;;2.78;2.05;;;24.30;68.20;;;;;;5012064;28;20045;-73
2022/07/11 12:15:06;;;;;;;5.00;2.88;;;24.00;67.90;;;;;;5013239;28;20034;-76
2022/07/11 12:17:32;;;;;;;3.27;2.03;;;24.20;68.70;;;;;;5011888;28;20038;-74
2022/07/11 12:19:59;;;;;;;3.33;2.20;;;24.40;67.50;;;;;;5011978;28;20293;-78
2022/07/11 12:22:28;;;;;;;2.40;1.65;;;24.30;66.90;;;;;;5011624;28;20057;-75
2022/07/11 12:24:54;;;;;;;4.57;2.58;;;24.50;67.20;;;;;;5012100;28;20427;-75
2022/07/11 12:27:25;;;;;;;4.43;2.28;;;24.70;65.50;;;;;;5018381;28;20033;-74
2022/07/11 12:29:52;;;;;;;3.40;1.88;;;24.30;66.60;;;;;;5020196;28;20048;-74
2022/07/11 12:32:20;;;;;;;5.13;1.83;;;24.50;66.80;;;;;;5020229;28;20034;-75
2022/07/11 12:34:49;;;;;;;3.00;1.63;;;25.00;66.00;;;;;;5021393;28;20041;-75
2022/07/11 12:37:17;;;;;;;4.00;1.35;;;24.90;64.80;;;;;;5014806;28;20034;-73
2022/07/11 12:39:51;;;;;;;4.03;1.90;;;25.00;64.70;;;;;;5013947;28;20041;-79
2022/07/11 12:42:28;;;;;;;2.30;1.58;;;24.90;63.60;;;;;;5019576;28;20036;-76
2022/07/11 12:45:11;;;;;;;3.65;1.52;;;24.90;63.80;;;;;;5020692;28;20022;-75
2022/07/11 12:47:45;;;;;;;3.80;1.90;;;25.20;63.40;;;;;;5013509;28;20052;-76
2022/07/11 12:50:15;;;;;;;2.78;1.58;;;25.20;63.20;;;;;;5022439;28;20026;-74
2022/07/11 12:52:47;;;;;;;3.33;1.77;;;25.00;63.50;;;;;;5019911;28;20030;-74
2022/07/11 12:55:29;;;;;;;2.28;1.33;;;25.00;64.70;;;;;;5019703;28;20026;-75
2022/07/11 12:58:16;;;;;;;3.78;2.13;;;24.90;63.00;;;;;;5015961;28;20037;-74
2022/07/11 13:00:59;;;;;;;1.90;1.40;;;24.60;63.40;;;;;;5014015;28;20049;-73
2022/07/11 13:03:35;;;;;;;3.33;1.77;;;24.50;63.80;;;;;;5010753;28;20486;-74
2022/07/11 13:06:02;;;;;;;1.75;1.33;;;24.30;64.20;;;;;;5015913;28;20034;-73
2022/07/11 13:08:44;;;;;;;2.65;1.40;;;24.40;64.90;;;;;;5015354;28;20033;-73